Time;durP1;ratioP1;P1;durP2;ratioP2;P2;SDS_P1;SDS_P2;PMS_P1;PMS_P2;Temp;Humidity;BMP_temperature;BMP_pressure;BME280_temperature;BME280_humidity;BME280_pressure;Samples;Min_cycle;Max_cycle;Signal;HPM_P1;HPM_P2
2022/08/10 00:02:21;;;;;;;1.60;1.00;;;;;;;13.28;100.00;101088.06;7396146;19;20023;-84
2022/08/10 00:04:47;;;;;;;1.00;0.93;;;;;;;13.24;100.00;101081.84;7394693;19;20021;-84
2022/08/10 00:07:13;;;;;;;1.60;0.57;;;;;;;13.24;100.00;101084.66;7395789;19;20023;-85
2022/08/10 00:09:39;;;;;;;1.05;0.70;;;;;;;13.24;100.00;101079.06;7392257;19;20011;-85
2022/08/10 00:12:06;;;;;;;1.45;0.80;;;;;;;13.27;100.00;101078.13;7390842;19;20086;-84
2022/08/10 00:14:32;;;;;;;1.52;0.55;;;;;;;13.28;100.00;101078.88;7392350;19;20014;-84
2022/08/10 00:16:58;;;;;;;2.55;0.77;;;;;;;13.23;100.00;101077.47;7393747;19;20428;-84
2022/08/10 00:19:24;;;;;;;1.55;1.08;;;;;;;13.26;100.00;101070.97;7393987;19;20014;-84
2022/08/10 00:21:50;;;;;;;1.70;0.75;;;;;;;13.21;100.00;101063.19;7395238;19;20029;-85
2022/08/10 00:24:17;;;;;;;0.98;0.32;;;;;;;13.21;100.00;101065.97;7395748;19;20041;-84
2022/08/10 00:26:43;;;;;;;0.95;0.63;;;;;;;13.18;100.00;101061.34;7395746;19;20484;-85
2022/08/10 00:29:10;;;;;;;2.20;0.60;;;;;;;13.21;100.00;101065.97;7393539;19;20074;-84
2022/08/10 00:31:36;;;;;;;2.03;0.75;;;;;;;13.20;100.00;101061.66;7393247;19;20461;-84
2022/08/10 00:34:02;;;;;;;5.43;1.33;;;;;;;13.19;100.00;101057.28;7393556;19;20097;-84
2022/08/10 00:36:28;;;;;;;2.33;0.82;;;;;;;13.16;100.00;101058.22;7396895;19;20024;-84
2022/08/10 00:38:54;;;;;;;1.95;0.88;;;;;;;13.11;100.00;101061.63;7397808;19;20461;-84
2022/08/10 00:41:20;;;;;;;1.95;0.82;;;;;;;13.09;100.00;101055.72;7394349;19;20374;-84
2022/08/10 00:43:46;;;;;;;2.22;0.63;;;;;;;13.07;100.00;101058.22;7393649;19;20015;-84
2022/08/10 00:46:13;;;;;;;1.10;1.08;;;;;;;12.97;100.00;101053.03;7394010;19;20014;-84
2022/08/10 00:48:39;;;;;;;1.02;0.95;;;;;;;12.98;100.00;101060.94;7392520;19;20433;-84
2022/08/10 00:51:05;;;;;;;2.17;1.42;;;;;;;12.96;100.00;101060.63;7392734;19;20019;-85
2022/08/10 00:53:31;;;;;;;2.65;1.25;;;;;;;12.92;100.00;101057.22;7392770;19;20011;-85
2022/08/10 00:55:58;;;;;;;1.83;0.43;;;;;;;12.90;100.00;101059.69;7394239;19;20469;-84
2022/08/10 00:58:24;;;;;;;4.07;1.35;;;;;;;12.86;100.00;101056.28;7397849;19;20353;-85
2022/08/10 01:00:50;;;;;;;0.68;0.60;;;;;;;12.84;100.00;101061.56;7394757;19;20683;-85
2022/08/10 01:03:16;;;;;;;1.55;1.00;;;;;;;12.84;100.00;101065.09;7394926;19;20011;-85
2022/08/10 01:06:04;;;;;;;2.20;1.10;;;;;;;12.82;100.00;101064.03;7394697;19;20022;-85
2022/08/10 01:08:54;;;;;;;1.58;0.63;;;;;;;12.78;100.00;101063.38;7391613;19;20086;-85
2022/08/10 01:11:34;;;;;;;4.85;0.93;;;;;;;12.77;100.00;101067.41;7393265;19;20082;-84
2022/08/10 01:14:08;;;;;;;4.30;0.90;;;;;;;12.76;100.00;101061.03;7393940;19;20561;-85
2022/08/10 01:16:52;;;;;;;1.95;1.10;;;;;;;12.77;100.00;101059.03;7394282;19;20279;-84
2022/08/10 01:19:42;;;;;;;1.05;0.52;;;;;;;12.77;100.00;101061.84;7393548;19;20022;-85
2022/08/10 01:22:30;;;;;;;2.38;1.02;;;;;;;12.79;100.00;101064.94;7394189;19;20017;-85
2022/08/10 01:25:21;;;;;;;0.73;0.40;;;;;;;12.78;100.00;101068.97;7392607;19;20022;-85
2022/08/10 01:27:59;;;;;;;2.05;0.75;;;;;;;12.76;100.00;101065.84;7395575;19;20019;-85
2022/08/10 01:30:28;;;;;;;1.58;0.50;;;;;;;12.75;100.00;101069.91;7392111;19;20082;-85
2022/08/10 01:33:08;;;;;;;1.08;0.63;;;;;;;12.72;100.00;101073.59;7390739;19;20014;-84
2022/08/10 01:36:06;;;;;;;3.33;1.07;;;;;;;12.71;100.00;101072.06;7391040;19;20492;-84
2022/08/10 01:38:37;;;;;;;1.20;0.77;;;;;;;12.70;100.00;101067.69;7391738;19;20019;-84
2022/08/10 01:41:17;;;;;;;2.55;1.00;;;;;;;12.66;100.00;101067.06;7393769;19;20025;-85
2022/08/10 01:43:50;;;;;;;6.45;0.95;;;;;;;12.63;100.00;101073.56;7393102;19;20033;-84
2022/08/10 01:46:21;;;;;;;0.88;0.65;;;;;;;12.62;100.00;101072.03;7392747;19;20029;-84
2022/08/10 01:48:52;;;;;;;1.85;0.52;;;;;;;12.61;100.00;101076.03;7392111;19;20046;-84
2022/08/10 01:51:26;;;;;;;3.22;1.13;;;;;;;12.57;100.00;101075.41;7393986;19;20035;-84
2022/08/10 01:54:00;;;;;;;1.00;0.93;;;;;;;12.54;100.00;101067.97;7391897;19;20084;-85
2022/08/10 01:56:30;;;;;;;6.85;0.95;;;;;;;12.53;100.00;101063.59;7392054;19;20011;-85
2022/08/10 01:59:33;;;;;;;2.85;1.27;;;;;;;12.49;100.00;101072.13;7385631;19;20015;-85
2022/08/10 02:02:06;;;;;;;1.95;1.10;;;;;;;12.50;100.00;101070.09;7390089;19;20007;-85
2022/08/10 02:04:36;;;;;;;0.82;0.80;;;;;;;12.49;100.00;101074.16;7393789;19;20461;-85
2022/08/10 02:07:05;;;;;;;0.70;0.70;;;;;;;12.46;100.00;101066.66;7393966;19;20559;-85
2022/08/10 02:09:35;;;;;;;0.63;0.57;;;;;;;12.45;100.00;101065.88;7389804;19;20018;-85
2022/08/10 02:12:06;;;;;;;1.08;0.70;;;;;;;12.42;100.00;101063.25;7390530;19;20070;-85
2022/08/10 02:14:35;;;;;;;2.97;1.17;;;;;;;12.42;100.00;101071.63;7391391;19;20101;-83
2022/08/10 02:17:18;;;;;;;0.20;0.20;;;;;;;12.40;100.00;101071.31;7393560;19;20053;-85
2022/08/10 02:19:45;;;;;;;0.75;0.40;;;;;;;12.38;100.00;101073.78;7392779;19;20046;-84
2022/08/10 02:22:14;;;;;;;3.20;0.65;;;;;;;12.39;100.00;101078.16;7391380;19;20473;-85
2022/08/10 02:24:42;;;;;;;0.50;0.40;;;;;;;12.38;100.00;101073.78;7392791;19;20098;-85
2022/08/10 02:27:10;;;;;;;3.10;1.05;;;;;;;12.38;100.00;101068.19;7391907;19;20019;-85
2022/08/10 02:29:37;;;;;;;2.08;0.63;;;;;;;12.34;100.00;101065.56;7390110;19;20019;-86
2022/08/10 02:32:05;;;;;;;2.25;0.80;;;;;;;12.32;100.00;101070.81;7391087;19;20011;-84
2022/08/10 02:34:33;;;;;;;11.45;0.85;;;;;;;12.32;100.00;101068.03;7393440;19;20014;-85
2022/08/10 02:37:02;;;;;;;1.80;0.40;;;;;;;12.34;100.00;101075.94;7398464;19;20038;-85
2022/08/10 02:39:30;;;;;;;7.25;0.73;;;;;;;12.35;100.00;101075.47;7400053;19;20018;-85
2022/08/10 02:41:59;;;;;;;0.52;0.52;;;;;;;12.34;100.00;101067.56;7398623;19;20014;-84
2022/08/10 02:44:44;;;;;;;5.57;0.55;;;;;;;12.33;100.00;101071.56;7398863;19;20018;-85
2022/08/10 02:47:16;;;;;;;0.30;0.30;;;;;;;12.33;100.00;101071.56;7400291;19;20022;-83
2022/08/10 02:49:50;;;;;;;0.88;0.65;;;;;;;12.32;100.00;101070.03;7396050;19;20550;-83
2022/08/10 02:52:23;;;;;;;0.43;0.35;;;;;;;12.32;100.00;101070.03;7395715;19;20018;-83
2022/08/10 02:55:04;;;;;;;3.35;0.57;;;;;;;12.31;100.00;101068.47;7394905;19;20037;-83
2022/08/10 02:57:37;;;;;;;0.98;0.40;;;;;;;12.28;100.00;101061.00;7397681;19;20014;-83
2022/08/10 03:00:06;;;;;;;0.93;0.93;;;;;;;12.26;100.00;101063.50;7399872;19;20329;-83
2022/08/10 03:02:36;;;;;;;1.85;0.60;;;;;;;12.24;100.00;101068.72;7399419;19;20006;-83
2022/08/10 03:05:08;;;;;;;9.98;0.80;;;;;;;12.21;100.00;101064.84;7400869;19;20405;-83
2022/08/10 03:07:59;;;;;;;3.78;0.63;;;;;;;12.18;100.00;101065.75;7399339;19;20050;-85
2022/08/10 03:10:29;;;;;;;1.20;0.98;;;;;;;12.14;100.00;101074.28;7393786;19;20047;-83
2022/08/10 03:12:58;;;;;;;9.90;0.80;;;;;;;12.10;100.00;101065.28;7393465;19;20018;-83
2022/08/10 03:15:27;;;;;;;1.05;0.95;;;;;;;12.05;100.00;101063.06;7394868;19;20677;-83
2022/08/10 03:17:55;;;;;;;2.35;0.90;;;;;;;12.01;100.00;101058.84;7398644;19;20018;-82
2022/08/10 03:20:22;;;;;;;1.52;0.80;;;;;;;12.01;100.00;101062.41;7396132;19;20014;-83
2022/08/10 03:22:50;;;;;;;1.38;0.63;;;;;;;12.01;100.00;101056.03;7398125;19;20019;-83
2022/08/10 03:25:19;;;;;;;0.93;0.82;;;;;;;11.97;100.00;101058.97;7396021;19;20018;-82
2022/08/10 03:27:47;;;;;;;7.13;0.73;;;;;;;11.96;100.00;101063.00;7399406;19;20340;-83
2022/08/10 03:30:14;;;;;;;1.88;1.00;;;;;;;11.95;100.00;101069.03;7395656;19;20419;-82
2022/08/10 03:32:42;;;;;;;7.53;1.20;;;;;;;11.93;100.00;101063.91;7395980;19;20010;-83
2022/08/10 03:35:10;;;;;;;0.90;0.60;;;;;;;11.91;100.00;101063.56;7394864;19;20018;-83
2022/08/10 03:37:37;;;;;;;0.98;0.90;;;;;;;11.89;100.00;101060.47;7397898;19;20417;-82
2022/08/10 03:40:05;;;;;;;1.88;0.80;;;;;;;11.89;100.00;101066.03;7395501;19;20371;-82
2022/08/10 03:42:34;;;;;;;0.73;0.73;;;;;;;11.87;100.00;101064.94;7396275;19;20019;-83
2022/08/10 03:45:03;;;;;;;7.88;0.52;;;;;;;11.87;100.00;101070.53;7396323;19;20011;-82
2022/08/10 03:47:30;;;;;;;2.42;1.48;;;;;;;11.85;100.00;101070.97;7397534;19;20087;-83
2022/08/10 03:49:57;;;;;;;0.43;0.43;;;;;;;11.84;100.00;101069.44;7395028;19;20062;-83
2022/08/10 03:52:25;;;;;;;0.55;0.50;;;;;;;11.83;100.00;101070.66;7395209;19;20070;-83
2022/08/10 03:54:51;;;;;;;0.88;0.45;;;;;;;11.82;100.00;101071.13;7394366;19;20082;-83
2022/08/10 03:57:19;;;;;;;2.85;0.63;;;;;;;11.81;100.00;101078.72;7397342;19;20022;-83
2022/08/10 03:59:47;;;;;;;1.48;1.38;;;;;;;11.81;100.00;101086.31;7397636;19;20034;-83
2022/08/10 04:02:13;;;;;;;1.85;0.65;;;;;;;11.80;100.00;101079.19;7395316;19;20018;-82
2022/08/10 04:04:39;;;;;;;3.38;0.50;;;;;;;11.79;100.00;101083.97;7398683;19;20471;-82
2022/08/10 04:07:06;;;;;;;1.38;0.52;;;;;;;11.78;100.00;101081.66;7394900;19;20011;-83
2022/08/10 04:09:34;;;;;;;1.27;0.65;;;;;;;11.76;100.00;101079.28;7397549;19;20089;-82
2022/08/10 04:12:02;;;;;;;1.90;0.60;;;;;;;11.76;100.00;101081.31;7392156;19;20026;-83
2022/08/10 04:14:28;;;;;;;1.35;0.57;;;;;;;11.73;100.00;101079.44;7393907;19;20035;-83
2022/08/10 04:16:54;;;;;;;0.80;0.80;;;;;;;11.69;100.00;101079.56;7393430;19;20015;-83
2022/08/10 04:19:21;;;;;;;3.00;1.05;;;;;;;11.67;100.00;101072.88;7397275;19;20532;-82
2022/08/10 04:21:58;;;;;;;3.83;1.10;;;;;;;11.68;100.00;101078.00;7393636;19;20037;-82
2022/08/10 04:24:26;;;;;;;1.40;0.68;;;;;;;11.67;100.00;101082.03;7395056;19;20090;-83
2022/08/10 04:26:52;;;;;;;0.75;0.73;;;;;;;11.65;100.00;101072.53;7392115;19;20025;-82
2022/08/10 04:29:19;;;;;;;1.10;0.40;;;;;;;11.64;100.00;101076.53;7398441;19;20061;-82
2022/08/10 04:31:47;;;;;;;5.50;0.63;;;;;;;11.61;100.00;101083.78;7395098;19;20021;-82
2022/08/10 04:34:14;;;;;;;0.63;0.60;;;;;;;11.57;100.00;101080.34;7396059;19;20014;-82
2022/08/10 04:36:42;;;;;;;1.75;0.60;;;;;;;11.56;100.00;101081.59;7395569;19;20018;-83
2022/08/10 04:39:10;;;;;;;1.17;1.08;;;;;;;11.54;100.00;101075.69;7396940;19;20027;-83
2022/08/10 04:41:37;;;;;;;0.60;0.60;;;;;;;11.52;100.00;101078.13;7395623;19;20035;-83
2022/08/10 04:44:03;;;;;;;0.55;0.50;;;;;;;11.50;100.00;101082.63;7393900;19;20512;-82
2022/08/10 04:46:29;;;;;;;7.68;1.38;;;;;;;11.47;100.00;101078.72;7393144;19;20014;-83
2022/08/10 04:48:55;;;;;;;0.63;0.57;;;;;;;11.48;100.00;101074.69;7395575;19;20022;-84
2022/08/10 04:51:21;;;;;;;1.95;0.95;;;;;;;11.48;100.00;101074.69;7393579;19;20025;-85
2022/08/10 04:53:50;;;;;;;5.30;0.90;;;;;;;11.51;100.00;101078.59;7394750;19;20010;-86
2022/08/10 04:56:16;;;;;;;1.10;0.68;;;;;;;11.50;100.00;101079.84;7393148;19;20350;-85
2022/08/10 04:58:42;;;;;;;2.90;0.80;;;;;;;11.55;100.00;101082.81;7396169;19;20052;-86
2022/08/10 05:01:09;;;;;;;2.13;0.75;;;;;;;11.54;100.00;101081.28;7394035;19;20018;-86
2022/08/10 05:03:35;;;;;;;3.95;1.20;;;;;;;11.59;100.00;101091.84;7393927;19;20014;-86
2022/08/10 05:06:01;;;;;;;0.80;0.35;;;;;;;11.65;100.00;101081.66;7391369;19;20014;-85
2022/08/10 05:08:27;;;;;;;1.38;1.13;;;;;;;11.66;100.00;101077.63;7391577;19;20035;-86
2022/08/10 05:10:53;;;;;;;1.00;0.63;;;;;;;11.65;100.00;101067.69;7394365;19;20468;-82
2022/08/10 05:13:19;;;;;;;0.70;0.70;;;;;;;11.67;100.00;101070.88;7393740;19;20461;-85
2022/08/10 05:15:47;;;;;;;2.08;0.80;;;;;;;11.70;100.00;101066.38;7391975;19;20085;-85
2022/08/10 05:18:13;;;;;;;0.52;0.52;;;;;;;11.71;100.00;101062.34;7393772;19;20048;-84
2022/08/10 05:20:39;;;;;;;2.15;0.55;;;;;;;11.72;100.00;101061.91;7391774;19;20014;-84
2022/08/10 05:23:06;;;;;;;1.63;1.10;;;;;;;11.72;100.00;101064.69;7394401;19;20018;-85
2022/08/10 05:25:32;;;;;;;0.75;0.75;;;;;;;11.72;100.00;101056.31;7394379;19;20587;-85
2022/08/10 05:27:58;;;;;;;0.73;0.50;;;;;;;11.74;100.00;101064.22;7394899;19;20010;-84
2022/08/10 05:30:25;;;;;;;1.15;0.82;;;;;;;11.73;100.00;101062.69;7391573;19;20014;-85
2022/08/10 05:32:51;;;;;;;0.90;0.43;;;;;;;11.75;100.00;101063.78;7390401;19;20018;-85
2022/08/10 05:35:18;;;;;;;1.73;1.02;;;;;;;11.78;100.00;101064.91;7391528;19;20019;-86
2022/08/10 05:37:45;;;;;;;2.22;0.82;;;;;;;11.78;100.00;101059.31;7391609;19;20021;-84
2022/08/10 05:40:11;;;;;;;3.45;1.10;;;;;;;11.79;100.00;101066.44;7391812;19;20017;-85
2022/08/10 05:42:38;;;;;;;2.30;0.75;;;;;;;11.79;100.00;101072.81;7392427;19;20349;-84
2022/08/10 05:45:08;;;;;;;1.45;0.68;;;;;;;11.87;100.00;101062.16;7391249;19;20021;-84
2022/08/10 05:47:34;;;;;;;1.35;0.73;;;;;;;11.94;100.00;101065.47;7390300;19;20015;-84
2022/08/10 05:50:00;;;;;;;0.40;0.40;;;;;;;11.98;100.00;101062.53;7389342;19;20035;-85
2022/08/10 05:52:26;;;;;;;1.48;0.80;;;;;;;12.01;100.00;101061.63;7388778;19;20090;-85
2022/08/10 05:54:53;;;;;;;1.67;0.88;;;;;;;12.08;100.00;101064.91;7388994;19;20010;-89
2022/08/10 05:57:22;;;;;;;1.08;1.05;;;;;;;12.13;100.00;101069.94;7395198;19;20095;-90
2022/08/10 06:00:01;;;;;;;1.08;0.75;;;;;;;12.16;100.00;101069.03;7401166;19;20018;-89
2022/08/10 06:02:31;;;;;;;6.20;1.77;;;;;;;12.22;100.00;101063.59;7394418;19;20010;-89
2022/08/10 06:05:02;;;;;;;1.25;1.05;;;;;;;12.28;100.00;101066.59;7395677;19;20465;-89
2022/08/10 06:07:29;;;;;;;;;;;;;;;12.34;100.00;101075.94;7392620;19;20362;-88
2022/08/10 06:09:57;;;;;;;4.03;0.60;;;;;;;12.40;100.00;101068.50;7396992;19;20349;-89
2022/08/10 06:12:28;;;;;;;1.13;0.93;;;;;;;12.44;100.00;101072.72;7397970;19;20014;-89
2022/08/10 06:15:00;;;;;;;2.38;0.85;;;;;;;12.50;100.00;101070.09;7394112;19;20015;-88
2022/08/10 06:17:29;;;;;;;1.90;0.90;;;;;;;12.58;100.00;101071.41;7396646;19;20690;-88
2022/08/10 06:19:57;;;;;;;2.58;0.98;;;;;;;12.66;100.00;101069.88;7401088;19;20048;-87
2022/08/10 06:22:30;;;;;;;0.75;0.50;;;;;;;12.71;100.00;101074.88;7401859;19;20014;-88
2022/08/10 06:24:59;;;;;;;1.60;1.10;;;;;;;12.78;100.00;101068.97;7401448;19;20080;-88
2022/08/10 06:27:25;;;;;;;3.53;0.85;;;;;;;12.83;100.00;101071.16;7399455;19;20042;-88
2022/08/10 06:29:54;;;;;;;0.98;0.85;;;;;;;12.89;100.00;101070.09;7403214;19;20018;-88
2022/08/10 06:32:26;;;;;;;0.90;0.63;;;;;;;12.98;100.00;101071.34;7397169;19;20007;-91
2022/08/10 06:34:57;;;;;;;1.27;0.55;;;;;;;13.06;100.00;101072.66;7398106;19;20112;-87
2022/08/10 06:37:26;;;;;;;;;;;;;;;13.14;100.00;101069.09;7397744;19;20018;-88
2022/08/10 06:39:52;;;;;;;1.65;0.35;;;;;;;13.22;100.00;101081.53;7404850;19;19914;-88
2022/08/10 06:42:32;;;;;;;2.03;1.20;;;;;;;13.28;100.00;101068.47;7401379;19;20014;-88
2022/08/10 06:45:04;;;;;;;2.30;1.20;;;;;;;13.33;100.00;101079.06;7400735;19;20014;-88
2022/08/10 06:47:48;;;;;;;4.13;1.38;;;;;;;13.39;100.00;101074.41;7398792;19;20014;-88
2022/08/10 06:50:24;;;;;;;3.03;1.85;;;;;;;13.51;100.00;101069.91;7398125;19;20010;-87
2022/08/10 06:52:53;;;;;;;2.47;0.75;;;;;;;13.56;100.00;101070.06;7398023;19;20035;-87
2022/08/10 06:55:22;;;;;;;1.27;0.60;;;;;;;13.66;100.00;101077.19;7396234;19;20461;-84
2022/08/10 06:57:50;;;;;;;2.05;1.67;;;;;;;13.77;100.00;101075.97;7395266;19;20070;-86
2022/08/10 07:00:17;;;;;;;5.43;1.77;;;;;;;13.89;100.00;101077.81;7399180;19;20062;-85
2022/08/10 07:02:53;;;;;;;1.27;1.13;;;;;;;14.01;100.00;101076.88;7399940;19;20026;-85
2022/08/10 07:05:22;;;;;;;3.97;1.90;;;;;;;14.10;100.00;101074.03;7398691;19;20040;-88
2022/08/10 07:07:51;;;;;;;1.85;0.98;;;;;;;14.17;100.00;101073.72;7397909;19;20018;-88
2022/08/10 07:10:22;;;;;;;1.00;0.90;;;;;;;14.26;100.00;101073.69;7397389;19;20010;-86
2022/08/10 07:12:51;;;;;;;8.25;1.02;;;;;;;14.39;100.00;101077.09;7397884;19;20011;-88
2022/08/10 07:15:19;;;;;;;7.28;1.42;;;;;;;14.45;100.00;101075.22;7397902;19;20048;-86
2022/08/10 07:17:46;;;;;;;1.30;0.60;;;;;;;14.56;100.00;101074.69;7397248;19;20038;-85
2022/08/10 07:20:17;;;;;;;2.95;0.55;;;;;;;14.65;100.00;101066.25;7399029;19;20022;-87
2022/08/10 07:22:47;;;;;;;1.30;0.90;;;;;;;14.79;100.00;101074.00;7398434;19;20018;-86
2022/08/10 07:25:25;;;;;;;2.20;0.75;;;;;;;14.89;100.00;101065.06;7397327;19;20082;-86
2022/08/10 07:27:53;;;;;;;2.13;0.95;;;;;;;15.05;100.00;101067.44;7395892;19;20007;-87
2022/08/10 07:30:19;;;;;;;0.32;0.20;;;;;;;15.18;100.00;101070.78;7396757;19;20021;-87
2022/08/10 07:32:48;;;;;;;2.75;0.80;;;;;;;15.32;100.00;101062.91;7395721;19;20021;-87
2022/08/10 07:35:17;;;;;;;2.47;1.05;;;;;;;15.48;100.00;101059.69;7395206;19;20062;-88
2022/08/10 07:37:48;;;;;;;2.95;0.50;;;;;;;15.65;100.00;101061.56;7395334;19;20007;-88
2022/08/10 07:40:16;;;;;;;;;;;;;;;15.84;100.00;101054.53;7398834;19;20019;-88
2022/08/10 07:42:46;;;;;;;1.17;0.73;;;;;;;15.95;100.00;101053.94;7397227;19;19939;-90
2022/08/10 07:45:12;;;;;;;0.43;0.25;;;;;;;16.12;100.00;101049.41;7399722;19;20015;-93
2022/08/10 07:47:45;;;;;;;2.63;0.43;;;;;;;16.20;100.00;101036.50;7397510;19;20022;-88
2022/08/10 07:50:14;;;;;;;1.23;0.70;;;;;;;16.34;100.00;101049.78;7396414;19;20030;-88
2022/08/10 07:52:42;;;;;;;5.47;0.88;;;;;;;16.43;100.00;101049.69;7397715;19;20337;-87
2022/08/10 07:55:13;;;;;;;1.17;0.68;;;;;;;16.56;100.00;101052.19;7396003;19;20018;-86
2022/08/10 07:57:43;;;;;;;2.53;0.70;;;;;;;16.64;100.00;101047.72;7399761;19;20029;-86
2022/08/10 08:00:10;;;;;;;0.70;0.45;;;;;;;16.76;100.00;101043.03;7397350;19;20051;-87
2022/08/10 08:02:54;;;;;;;0.60;0.30;;;;;;;16.84;100.00;101047.75;7400239;19;20010;-87
2022/08/10 08:05:24;;;;;;;1.13;0.30;;;;;;;16.96;100.00;101059.94;7399619;19;20354;-87
2022/08/10 08:07:52;;;;;;;1.00;0.57;;;;;;;17.02;100.00;101044.66;7397296;19;20039;-87
2022/08/10 08:10:22;;;;;;;3.78;0.70;;;;;;;17.12;100.00;101050.94;7396842;19;20018;-88
2022/08/10 08:12:51;;;;;;;1.27;0.68;;;;;;;17.19;100.00;101042.09;7395574;19;20011;-88
2022/08/10 08:15:22;;;;;;;0.40;0.17;;;;;;;17.39;100.00;101050.50;7395440;19;20003;-88
2022/08/10 08:17:50;;;;;;;0.30;0.13;;;;;;;17.41;100.00;101050.81;7396752;19;20088;-88
2022/08/10 08:20:18;;;;;;;6.88;0.70;;;;;;;17.49;100.00;101048.34;7398355;19;20011;-88
2022/08/10 08:22:46;;;;;;;2.05;0.30;;;;;;;17.61;100.00;101056.44;7398419;19;20472;-87
2022/08/10 08:25:14;;;;;;;2.42;0.50;;;;;;;17.70;100.00;101055.50;7397616;19;20026;-85
2022/08/10 08:27:42;;;;;;;1.48;0.93;;;;;;;17.79;100.00;101050.50;7395373;19;20030;-85
2022/08/10 08:30:09;;;;;;;4.85;1.60;;;;;;;17.94;100.00;101051.19;7394799;19;20032;-85
2022/08/10 08:32:37;;;;;;;6.10;1.45;;;;;;;18.10;100.00;101047.72;7392557;19;20359;-86
2022/08/10 08:35:10;;;;;;;2.85;0.57;;;;;;;18.27;100.00;101047.09;7393457;19;20010;-86
2022/08/10 08:37:39;;;;;;;1.48;0.25;;;;;;;18.43;100.00;101047.22;7395098;19;20018;-85
2022/08/10 08:40:31;;;;;;;2.88;0.47;;;;;;;18.67;100.00;101046.91;7394687;19;20033;-86
2022/08/10 08:43:18;;;;;;;2.42;0.57;;;;;;;18.84;100.00;101042.19;7396833;19;20014;-85
2022/08/10 08:46:00;;;;;;;1.45;0.50;;;;;;;18.93;100.00;101039.91;7395385;19;20402;-86
2022/08/10 08:48:50;;;;;;;2.30;0.52;;;;;;;18.94;100.00;101035.03;7395090;19;20010;-85
2022/08/10 08:51:17;;;;;;;1.63;0.40;;;;;;;19.16;100.00;101032.34;7393509;19;20011;-84
2022/08/10 08:54:02;;;;;;;0.47;0.30;;;;;;;19.29;100.00;101032.66;7394389;19;20007;-87
2022/08/10 08:56:48;;;;;;;0.35;0.17;;;;;;;19.51;100.00;101020.69;7394598;19;20015;-84
2022/08/10 08:59:41;;;;;;;2.05;0.38;;;;;;;19.89;100.00;101014.34;7397219;19;20018;-91
2022/08/10 09:02:30;;;;;;;2.17;0.85;;;;;;;20.04;100.00;101011.25;7396344;19;20006;-89
2022/08/10 09:05:20;;;;;;;1.65;0.20;;;;;;;20.17;100.00;101006.63;7396218;19;20011;-89
2022/08/10 09:08:01;;;;;;;0.82;0.15;;;;;;;20.34;100.00;101001.00;7394509;19;20033;-87
2022/08/10 09:10:52;;;;;;;0.57;0.28;;;;;;;20.60;100.00;101006.34;7393813;19;20022;-90
2022/08/10 09:13:30;;;;;;;0.75;0.20;;;;;;;20.83;100.00;100997.31;7393800;19;20025;-90
2022/08/10 09:16:19;;;;;;;2.22;0.57;;;;;;;21.04;100.00;100995.72;7394291;19;20014;-91
2022/08/10 09:19:23;;;;;;;0.80;0.28;;;;;;;21.34;100.00;100995.06;7397310;19;20010;-87
2022/08/10 09:22:11;;;;;;;0.30;0.10;;;;;;;21.75;100.00;100990.19;7393690;19;20011;-89
2022/08/10 09:24:52;;;;;;;2.00;0.50;;;;;;;21.90;100.00;100984.94;7392148;19;20058;-89
2022/08/10 09:27:19;;;;;;;0.35;0.13;;;;;;;22.01;100.00;100979.19;7397468;19;20022;-88
2022/08/10 09:29:54;;;;;;;1.70;0.40;;;;;;;22.11;100.00;100982.47;7398604;19;20306;-88
2022/08/10 09:32:39;;;;;;;0.85;0.30;;;;;;;22.24;100.00;100979.78;7394558;19;20365;-91
2022/08/10 09:35:30;;;;;;;0.60;0.22;;;;;;;22.41;100.00;100984.00;7394146;19;20019;-90
2022/08/10 09:38:24;;;;;;;0.20;0.00;;;;;;;22.51;100.00;100982.34;7395686;19;20636;-89
2022/08/10 09:41:07;;;;;;;0.43;0.22;;;;;;;22.70;100.00;100979.59;7395036;19;20011;-90
2022/08/10 09:43:40;;;;;;;4.63;0.40;;;;;;;22.89;100.00;100976.81;7399793;19;20022;-91
2022/08/10 09:46:09;;;;;;;5.97;0.22;;;;;;;23.01;100.00;100984.66;7403317;19;20014;-90
2022/08/10 09:48:53;;;;;;;2.78;0.55;;;;;;;23.12;100.00;100980.91;7401323;19;20017;-87
2022/08/10 09:51:55;;;;;;;0.38;0.20;;;;;;;23.21;100.00;100978.47;7399158;19;20018;-88
2022/08/10 09:54:47;;;;;;;0.85;0.38;;;;;;;23.25;100.00;100976.09;7399467;19;20014;-89
2022/08/10 09:57:38;;;;;;;0.40;0.20;;;;;;;23.39;100.00;100971.28;7401863;19;20015;-88
2022/08/10 10:00:10;;;;;;;0.25;0.17;;;;;;;23.61;100.00;100979.50;7396479;19;20018;-88
2022/08/10 10:02:41;;;;;;;0.82;0.15;;;;;;;23.80;100.00;100971.69;7399908;19;20011;-87
2022/08/10 10:05:26;;;;;;;0.30;0.10;;;;;;;23.90;100.00;100961.47;7400222;19;20014;-88
2022/08/10 10:08:08;;;;;;;3.20;0.25;;;;;;;24.01;100.00;100963.34;7401582;19;20006;-90
2022/08/10 10:10:44;;;;;;;2.95;0.20;;;;;;;24.04;100.00;100965.91;7398070;19;20018;-94
2022/08/10 10:13:18;;;;;;;1.27;0.65;;;;;;;24.19;100.00;100961.78;7399641;19;20027;-91
2022/08/10 10:16:33;;;;;;;1.45;0.20;;;;;;;24.41;100.00;100955.69;7399470;19;20010;-91
2022/08/10 10:19:21;;;;;;;1.75;0.20;;;;;;;24.58;100.00;100974.00;7399047;19;20018;-90
2022/08/10 10:21:55;;;;;;;0.28;0.20;;;;;;;24.75;100.00;100953.78;7402375;19;20348;-90
2022/08/10 10:24:34;;;;;;;7.53;0.30;;;;;;;24.86;100.00;100947.84;7401543;19;20002;-86
2022/08/10 10:27:10;;;;;;;0.73;0.52;;;;;;;24.91;100.00;100946.97;7399691;19;20006;-87
2022/08/10 10:29:59;;;;;;;3.83;0.60;;;;;;;25.11;100.00;100940.59;7401659;19;20006;-87
2022/08/10 10:32:43;;;;;;;1.50;0.20;;;;;;;25.20;100.00;100931.56;7398180;19;20038;-87
2022/08/10 10:35:33;;;;;;;0.65;0.10;;;;;;;25.30;100.00;100941.19;7397040;19;20018;-87
2022/08/10 10:38:01;;;;;;;3.33;0.30;;;;;;;25.34;100.00;100941.63;7396569;19;20018;-86
2022/08/10 10:40:33;;;;;;;0.20;0.10;;;;;;;25.34;100.00;100932.28;7399733;19;20052;-86
2022/08/10 10:43:41;;;;;;;3.03;0.32;;;;;;;25.42;100.00;100942.53;7399074;19;20034;-84
2022/08/10 10:46:32;;;;;;;0.75;0.50;;;;;;;25.52;100.00;100929.31;7398676;19;20014;-85
2022/08/10 10:49:26;;;;;;;1.00;0.20;;;;;;;25.56;100.00;100929.72;7398107;19;20022;-86
2022/08/10 10:52:07;;;;;;;1.55;0.28;;;;;;;25.60;100.00;100928.63;7398977;19;20078;-85
2022/08/10 10:54:48;;;;;;;3.30;0.30;;;;;;;25.76;100.00;100924.59;7395394;19;20022;-85
2022/08/10 10:57:28;;;;;;;0.73;0.20;;;;;;;25.93;100.00;100927.78;7401908;19;20019;-88
2022/08/10 11:00:03;;;;;;;7.22;0.52;;;;;;;25.95;100.00;100919.44;7399949;19;20014;-89
2022/08/10 11:02:52;;;;;;;3.25;0.20;;;;;;;25.98;100.00;100912.63;7401188;19;20380;-88
2022/08/10 11:05:37;;;;;;;5.07;0.32;;;;;;;25.98;100.00;100909.75;7399922;19;20086;-85
2022/08/10 11:08:17;;;;;;;0.45;0.10;;;;;;;25.98;100.00;100901.19;7396059;19;20015;-85
2022/08/10 11:11:05;;;;;;;0.20;0.00;;;;;;;26.06;100.00;100902.78;7393212;19;20028;-85
2022/08/10 11:13:41;;;;;;;3.83;0.25;;;;;;;26.14;100.00;100902.91;7393747;19;20023;-86
2022/08/10 11:16:18;;;;;;;0.98;0.10;;;;;;;26.23;100.00;100903.16;7395298;19;20021;-86
2022/08/10 11:18:50;;;;;;;0.93;0.10;;;;;;;26.27;100.00;100899.91;7396996;19;20023;-86
2022/08/10 11:21:44;;;;;;;1.05;0.10;;;;;;;26.33;100.00;100907.00;7396559;19;20018;-85
2022/08/10 11:24:26;;;;;;;7.72;0.52;;;;;;;26.39;100.00;100897.53;7396060;19;20015;-85
2022/08/10 11:27:39;;;;;;;0.32;0.15;;;;;;;26.44;100.00;100902.34;7397520;19;20011;-85
2022/08/10 11:30:09;;;;;;;0.30;0.20;;;;;;;26.49;100.00;100896.47;7392502;19;20093;-86
2022/08/10 11:32:52;;;;;;;5.53;0.28;;;;;;;26.59;100.00;100897.50;7395201;19;20015;-86
2022/08/10 11:35:32;;;;;;;1.25;0.20;;;;;;;26.69;100.00;100904.19;7396139;19;20025;-86
2022/08/10 11:38:13;;;;;;;0.82;0.20;;;;;;;26.74;100.00;100891.88;7395758;19;20018;-87
2022/08/10 11:40:58;;;;;;;0.60;0.10;;;;;;;26.81;100.00;100896.84;7395642;19;20355;-87
2022/08/10 11:43:28;;;;;;;0.60;0.10;;;;;;;26.90;100.00;100896.31;7398064;19;20026;-87
2022/08/10 11:46:12;;;;;;;;;;;;;;;26.99;100.00;100890.09;7399610;19;20107;-87